Time;durP1;ratioP1;P1;durP2;ratioP2;P2;SDS_P1;SDS_P2;PMS_P1;PMS_P2;Temp;Humidity;BMP_temperature;BMP_pressure;BME280_temperature;BME280_humidity;BME280_pressure;Samples;Min_cycle;Max_cycle;Signal;HPM_P1;HPM_P2
2023/03/24 00:02:13;;;;;;;3.60;1.17;;;;;;;;;;5065094;28;20370;-70
2023/03/24 00:04:41;;;;;;;4.93;1.38;;;;;;;;;;5060020;28;20045;-71
2023/03/24 00:07:07;;;;;;;5.80;1.30;;;;;;;;;;5068256;28;20094;-69
2023/03/24 00:09:32;;;;;;;2.17;1.10;;;;;;;;;;5060351;28;20343;-69
2023/03/24 00:11:57;;;;;;;4.93;1.23;;;;;;;;;;5063539;28;20032;-69
2023/03/24 00:14:23;;;;;;;2.23;0.97;;;;;;;;;;5064804;28;20036;-69
2023/03/24 00:16:49;;;;;;;2.80;1.33;;;;;;;;;;5069144;28;20266;-70
2023/03/24 00:19:14;;;;;;;2.85;1.02;;;;;;;;;;5064947;28;20028;-69
2023/03/24 00:21:40;;;;;;;2.15;0.85;;;;;;;;;;5063093;28;20488;-69
2023/03/24 00:24:10;;;;;;;4.88;1.45;;;;;;;;;;5065753;28;20013;-69
2023/03/24 00:26:38;;;;;;;2.28;0.75;;;;;;;;;;5060887;28;20025;-69
2023/03/24 00:29:04;;;;;;;5.63;1.73;;;;;;;;;;5062810;28;20071;-69
2023/03/24 00:31:30;;;;;;;3.42;1.40;;;;;;;;;;5063261;28;20063;-69
2023/03/24 00:33:55;;;;;;;3.92;1.25;;;;;;;;;;5064046;28;20565;-69
2023/03/24 00:36:21;;;;;;;3.42;1.65;;;;;;;;;;5062837;28;20024;-69
2023/03/24 00:38:47;;;;;;;2.22;1.10;;;;;;;;;;5063809;28;20017;-69
2023/03/24 00:41:13;;;;;;;6.88;0.95;;;;;;;;;;5065547;28;20023;-69
2023/03/24 00:43:38;;;;;;;2.90;0.90;;;;;;;;;;5066285;28;20384;-69
2023/03/24 00:46:06;;;;;;;1.40;1.15;;;;;;;;;;5068275;28;20021;-69
2023/03/24 00:48:31;;;;;;;3.17;1.20;;;;;;;;;;5061075;28;20023;-69
2023/03/24 00:50:59;;;;;;;7.60;1.60;;;;;;;;;;5066369;28;20378;-69
2023/03/24 00:53:28;;;;;;;2.00;0.77;;;;;;;;;;5060879;28;20035;-69
2023/03/24 00:55:53;;;;;;;3.38;1.65;;;;;;;;;;5062350;28;20046;-68
2023/03/24 00:58:22;;;;;;;1.75;0.82;;;;;;;;;;5067223;28;20111;-69
2023/03/24 01:00:48;;;;;;;2.30;0.88;;;;;;;;;;5065780;28;20028;-69
2023/03/24 01:03:14;;;;;;;0.90;0.73;;;;;;;;;;5064721;28;20021;-69
2023/03/24 01:05:40;;;;;;;2.38;0.88;;;;;;;;;;5059115;28;20027;-69
2023/03/24 01:08:06;;;;;;;3.58;1.33;;;;;;;;;;5061843;28;20066;-69
2023/03/24 01:10:33;;;;;;;1.45;0.88;;;;;;;;;;5054327;28;20023;-69
2023/03/24 01:12:58;;;;;;;3.97;1.20;;;;;;;;;;5057907;28;20116;-69
2023/03/24 01:15:26;;;;;;;2.40;1.17;;;;;;;;;;5055076;28;20564;-69
2023/03/24 01:17:52;;;;;;;3.55;1.45;;;;;;;;;;5061340;28;20042;-69
2023/03/24 01:20:17;;;;;;;2.75;1.63;;;;;;;;;;5064791;28;20495;-69
2023/03/24 01:22:45;;;;;;;5.78;1.65;;;;;;;;;;5065800;28;22009;-69
2023/03/24 01:25:15;;;;;;;1.67;1.00;;;;;;;;;;5062400;28;20016;-69
2023/03/24 01:27:41;;;;;;;2.30;0.82;;;;;;;;;;5055857;28;20036;-69
2023/03/24 01:30:06;;;;;;;2.33;1.15;;;;;;;;;;5067167;28;20017;-69
2023/03/24 01:32:32;;;;;;;2.35;1.30;;;;;;;;;;5060330;28;20019;-69
2023/03/24 01:34:57;;;;;;;7.60;1.23;;;;;;;;;;5060335;28;20028;-69
2023/03/24 01:37:22;;;;;;;1.23;0.70;;;;;;;;;;5068310;28;20025;-69
2023/03/24 01:39:48;;;;;;;3.42;1.08;;;;;;;;;;5064549;28;20470;-69
2023/03/24 01:42:17;;;;;;;2.60;1.13;;;;;;;;;;5060969;28;20048;-70
2023/03/24 01:44:44;;;;;;;1.25;0.52;;;;;;;;;;5057834;28;20025;-69
2023/03/24 01:47:10;;;;;;;3.00;1.60;;;;;;;;;;5068033;28;20016;-69
2023/03/24 01:49:44;;;;;;;1.10;0.70;;;;;;;;;;5058301;28;20757;-69
2023/03/24 01:52:12;;;;;;;5.35;1.75;;;;;;;;;;5063498;28;20637;-69
2023/03/24 01:54:49;;;;;;;2.63;1.23;;;;;;;;;;5055650;28;20044;-69
2023/03/24 01:57:28;;;;;;;3.42;1.70;;;;;;;;;;5060389;28;20032;-69
2023/03/24 01:59:55;;;;;;;2.33;1.55;;;;;;;;;;5065604;28;20471;-69
2023/03/24 02:02:21;;;;;;;1.65;0.85;;;;;;;;;;5067969;28;20013;-69
2023/03/24 02:04:49;;;;;;;2.70;1.33;;;;;;;;;;5062827;28;20567;-69
2023/03/24 02:07:22;;;;;;;2.05;1.13;;;;;;;;;;5066840;28;20004;-69
2023/03/24 02:09:47;;;;;;;3.67;1.17;;;;;;;;;;5062308;28;20020;-70
2023/03/24 02:12:12;;;;;;;4.03;1.40;;;;;;;;;;5067204;28;20017;-69
2023/03/24 02:14:38;;;;;;;2.40;1.27;;;;;;;;;;5061719;28;20514;-70
2023/03/24 02:17:06;;;;;;;2.63;1.35;;;;;;;;;;5067370;28;20025;-69
2023/03/24 02:19:46;;;;;;;4.93;1.30;;;;;;;;;;5066220;28;20028;-69
2023/03/24 02:22:39;;;;;;;2.70;1.38;;;;;;;;;;5060174;28;20013;-69
2023/03/24 02:25:07;;;;;;;2.90;1.23;;;;;;;;;;5066958;28;20074;-69
2023/03/24 02:27:41;;;;;;;2.08;1.23;;;;;;;;;;5066606;28;20017;-70
2023/03/24 02:30:25;;;;;;;1.63;1.15;;;;;;;;;;5064846;28;20020;-70
2023/03/24 02:32:59;;;;;;;4.20;1.48;;;;;;;;;;5062087;28;20024;-70
2023/03/24 02:35:24;;;;;;;2.58;1.50;;;;;;;;;;5066164;28;20021;-70
2023/03/24 02:38:08;;;;;;;1.15;0.85;;;;;;;;;;5062836;28;20025;-69
2023/03/24 02:40:35;;;;;;;2.05;1.15;;;;;;;;;;5060603;28;20028;-69
2023/03/24 02:43:12;;;;;;;4.97;1.85;;;;;;;;;;5060824;28;20037;-70
2023/03/24 02:45:51;;;;;;;5.90;1.73;;;;;;;;;;5060801;28;20035;-69
2023/03/24 02:48:21;;;;;;;1.40;1.02;;;;;;;;;;5059016;28;20823;-69
2023/03/24 02:50:59;;;;;;;2.20;1.27;;;;;;;;;;5064742;28;20021;-69
2023/03/24 02:53:27;;;;;;;2.17;1.20;;;;;;;;;;5064766;28;20058;-69
2023/03/24 02:55:55;;;;;;;2.00;1.33;;;;;;;;;;5066658;28;20110;-70
2023/03/24 02:58:20;;;;;;;2.30;1.15;;;;;;;;;;5063224;28;20128;-69
2023/03/24 03:00:48;;;;;;;3.55;1.13;;;;;;;;;;5067709;28;20160;-70
2023/03/24 03:03:13;;;;;;;1.63;0.80;;;;;;;;;;5065855;28;20077;-69
2023/03/24 03:05:42;;;;;;;5.18;1.50;;;;;;;;;;5062947;28;20109;-69
2023/03/24 03:08:08;;;;;;;3.83;1.73;;;;;;;;;;5058262;28;20147;-69
2023/03/24 03:10:36;;;;;;;4.47;1.67;;;;;;;;;;5063173;28;20024;-70
2023/03/24 03:13:05;;;;;;;3.83;1.65;;;;;;;;;;5062921;28;20089;-69
2023/03/24 03:15:33;;;;;;;2.60;1.10;;;;;;;;;;5064288;28;20502;-69
2023/03/24 03:18:04;;;;;;;2.22;1.10;;;;;;;;;;5061176;28;20043;-69
2023/03/24 03:20:35;;;;;;;3.47;1.98;;;;;;;;;;5069005;28;20413;-69
2023/03/24 03:23:03;;;;;;;4.40;1.65;;;;;;;;;;5064832;28;20091;-69
2023/03/24 03:25:31;;;;;;;2.95;1.42;;;;;;;;;;5067783;28;20012;-69
2023/03/24 03:27:59;;;;;;;2.88;1.67;;;;;;;;;;5064825;28;20500;-69
2023/03/24 03:30:32;;;;;;;4.78;2.38;;;;;;;;;;5068322;28;20008;-69
2023/03/24 03:33:02;;;;;;;3.50;2.10;;;;;;;;;;5063859;28;20013;-68
2023/03/24 03:35:50;;;;;;;11.15;2.47;;;;;;;;;;5066573;28;20541;-68
2023/03/24 03:38:22;;;;;;;2.85;1.65;;;;;;;;;;5058163;28;20024;-68
2023/03/24 03:40:55;;;;;;;7.00;1.80;;;;;;;;;;5065601;28;20016;-69
2023/03/24 03:43:20;;;;;;;3.80;1.95;;;;;;;;;;5062975;28;20098;-68
2023/03/24 03:45:46;;;;;;;3.58;1.80;;;;;;;;;;5067527;28;20056;-69
2023/03/24 03:48:11;;;;;;;4.93;2.33;;;;;;;;;;5057958;28;20020;-69
2023/03/24 03:50:37;;;;;;;5.82;2.40;;;;;;;;;;5060251;28;20020;-69
2023/03/24 03:53:03;;;;;;;3.20;2.03;;;;;;;;;;5068677;28;20019;-69
2023/03/24 03:55:29;;;;;;;5.80;1.77;;;;;;;;;;5064769;28;20025;-69
2023/03/24 03:57:55;;;;;;;9.13;2.22;;;;;;;;;;5069892;28;20384;-69
2023/03/24 04:00:21;;;;;;;4.93;2.28;;;;;;;;;;5066052;28;20024;-69
2023/03/24 04:02:46;;;;;;;5.47;1.85;;;;;;;;;;5062206;28;20437;-69
2023/03/24 04:05:31;;;;;;;5.38;2.72;;;;;;;;;;5063853;28;20048;-69
2023/03/24 04:08:11;;;;;;;4.93;2.40;;;;;;;;;;5063157;28;20031;-69
2023/03/24 04:10:52;;;;;;;2.47;1.83;;;;;;;;;;5067888;28;20381;-68
2023/03/24 04:13:34;;;;;;;4.75;2.25;;;;;;;;;;5065025;28;20473;-68
2023/03/24 04:16:08;;;;;;;5.80;2.15;;;;;;;;;;5066031;28;20580;-69
2023/03/24 04:18:37;;;;;;;6.35;1.52;;;;;;;;;;5065509;28;20024;-69
2023/03/24 04:21:05;;;;;;;5.00;2.58;;;;;;;;;;5069370;28;20074;-69
2023/03/24 04:23:44;;;;;;;4.75;1.58;;;;;;;;;;5066493;28;20043;-69
2023/03/24 04:26:40;;;;;;;8.40;1.77;;;;;;;;;;5057405;28;20074;-69
2023/03/24 04:29:16;;;;;;;2.50;1.80;;;;;;;;;;5037050;28;20021;-68
2023/03/24 04:31:43;;;;;;;2.95;1.75;;;;;;;;;;5066192;28;20032;-69
2023/03/24 04:34:19;;;;;;;8.07;2.45;;;;;;;;;;5057705;28;20028;-69
2023/03/24 04:36:49;;;;;;;3.72;2.30;;;;;;;;;;5062772;28;20025;-70
2023/03/24 04:39:18;;;;;;;3.67;2.72;;;;;;;;;;5065192;28;20078;-69
2023/03/24 04:41:44;;;;;;;6.43;2.88;;;;;;;;;;5067278;28;20032;-69
2023/03/24 04:44:09;;;;;;;3.47;2.25;;;;;;;;;;5055718;28;20066;-69
2023/03/24 04:46:35;;;;;;;3.83;2.10;;;;;;;;;;5066409;28;20031;-68
2023/03/24 04:49:01;;;;;;;3.78;2.30;;;;;;;;;;5065571;28;20024;-69
2023/03/24 04:51:27;;;;;;;2.70;1.63;;;;;;;;;;5066535;28;20097;-69
2023/03/24 04:53:52;;;;;;;4.28;1.67;;;;;;;;;;5068420;28;20096;-69
2023/03/24 04:56:17;;;;;;;2.58;1.20;;;;;;;;;;5065700;28;20050;-68
2023/03/24 04:58:43;;;;;;;1.05;0.73;;;;;;;;;;5064764;28;20463;-68
2023/03/24 05:01:08;;;;;;;2.87;0.73;;;;;;;;;;5063475;28;20051;-68
2023/03/24 05:03:36;;;;;;;1.40;0.73;;;;;;;;;;5067829;28;20289;-68
2023/03/24 05:06:04;;;;;;;1.70;0.85;;;;;;;;;;5065079;28;20126;-68
2023/03/24 05:08:30;;;;;;;4.22;0.60;;;;;;;;;;5057187;28;20408;-68
2023/03/24 05:10:55;;;;;;;1.88;0.85;;;;;;;;;;5064458;28;20043;-68
2023/03/24 05:13:20;;;;;;;1.50;0.70;;;;;;;;;;5062937;28;20430;-68
2023/03/24 05:15:46;;;;;;;3.53;1.10;;;;;;;;;;5061760;28;20037;-68
2023/03/24 05:18:11;;;;;;;9.25;1.10;;;;;;;;;;5062252;28;20321;-69
2023/03/24 05:20:36;;;;;;;1.90;0.98;;;;;;;;;;5068513;28;20044;-69
2023/03/24 05:23:02;;;;;;;8.17;1.00;;;;;;;;;;5063954;28;20023;-69
2023/03/24 05:25:27;;;;;;;1.05;0.65;;;;;;;;;;5057680;28;20293;-69
2023/03/24 05:27:52;;;;;;;2.43;1.30;;;;;;;;;;5061984;28;20096;-69
2023/03/24 05:30:19;;;;;;;5.28;1.27;;;;;;;;;;5061503;28;20297;-69
2023/03/24 05:32:44;;;;;;;5.25;1.35;;;;;;;;;;5064895;28;20012;-69
2023/03/24 05:35:09;;;;;;;6.63;1.63;;;;;;;;;;5068362;28;20091;-69
2023/03/24 05:37:35;;;;;;;4.13;2.30;;;;;;;;;;5066958;28;20055;-69
2023/03/24 05:40:00;;;;;;;6.50;1.98;;;;;;;;;;5065972;28;20028;-68
2023/03/24 05:42:25;;;;;;;3.77;1.97;;;;;;;;;;5061675;28;20217;-68
2023/03/24 05:44:50;;;;;;;4.07;2.53;;;;;;;;;;5065503;28;20263;-69
2023/03/24 05:47:18;;;;;;;5.22;2.28;;;;;;;;;;5068770;28;20016;-69
2023/03/24 05:49:44;;;;;;;5.25;2.42;;;;;;;;;;5058882;28;20477;-69
2023/03/24 05:52:10;;;;;;;7.88;2.13;;;;;;;;;;5065288;28;20021;-69
2023/03/24 05:54:35;;;;;;;5.35;2.13;;;;;;;;;;5068865;28;20519;-69
2023/03/24 05:57:01;;;;;;;3.92;1.45;;;;;;;;;;5063482;28;20016;-68
2023/03/24 05:59:26;;;;;;;4.60;1.40;;;;;;;;;;5059509;28;20082;-69
2023/03/24 06:01:58;;;;;;;6.88;1.48;;;;;;;;;;5065156;28;20028;-69
2023/03/24 06:04:23;;;;;;;2.80;1.40;;;;;;;;;;5068027;28;20024;-68
2023/03/24 06:06:48;;;;;;;5.50;1.23;;;;;;;;;;5068097;28;20023;-69
2023/03/24 06:09:15;;;;;;;6.90;1.63;;;;;;;;;;5059850;28;20466;-69
2023/03/24 06:11:41;;;;;;;9.50;1.40;;;;;;;;;;5061155;28;20040;-69
2023/03/24 06:14:06;;;;;;;3.95;0.90;;;;;;;;;;5067781;28;20036;-69
2023/03/24 06:16:32;;;;;;;4.63;1.40;;;;;;;;;;5067956;28;20525;-69
2023/03/24 06:18:59;;;;;;;3.83;1.42;;;;;;;;;;5056835;28;20021;-69
2023/03/24 06:21:29;;;;;;;6.78;1.08;;;;;;;;;;5058557;28;20021;-69
2023/03/24 06:23:56;;;;;;;6.35;1.42;;;;;;;;;;5060846;28;20016;-69
2023/03/24 06:26:21;;;;;;;3.88;1.27;;;;;;;;;;5063122;28;20469;-69
2023/03/24 06:28:46;;;;;;;9.40;1.35;;;;;;;;;;5063867;28;20131;-69
2023/03/24 06:31:13;;;;;;;4.37;1.37;;;;;;;;;;5054314;28;20199;-68
2023/03/24 06:33:39;;;;;;;4.20;1.60;;;;;;;;;;5053975;28;20374;-69
2023/03/24 06:36:05;;;;;;;3.22;1.27;;;;;;;;;;5062638;28;20107;-69
2023/03/24 06:38:30;;;;;;;7.85;1.52;;;;;;;;;;5064427;28;20033;-69
2023/03/24 06:40:59;;;;;;;5.30;1.58;;;;;;;;;;5056025;28;20432;-69
2023/03/24 06:43:24;;;;;;;9.73;2.42;;;;;;;;;;5065606;28;20027;-68
2023/03/24 06:45:49;;;;;;;7.90;1.50;;;;;;;;;;5067103;28;20028;-69
2023/03/24 06:48:14;;;;;;;6.40;1.85;;;;;;;;;;5060259;28;20025;-69
2023/03/24 06:50:40;;;;;;;10.48;1.70;;;;;;;;;;5057551;28;20024;-69
2023/03/24 06:53:05;;;;;;;6.55;1.80;;;;;;;;;;5069904;28;20024;-69
2023/03/24 06:55:31;;;;;;;7.70;1.42;;;;;;;;;;5063118;28;20016;-69
2023/03/24 06:57:56;;;;;;;10.02;1.90;;;;;;;;;;5065399;28;20046;-69
2023/03/24 07:00:22;;;;;;;9.47;1.77;;;;;;;;;;5064915;28;20069;-70
2023/03/24 07:02:47;;;;;;;12.82;3.00;;;;;;;;;;5065268;28;20427;-70
2023/03/24 07:05:12;;;;;;;9.60;1.70;;;;;;;;;;5063641;28;20016;-70
2023/03/24 07:07:37;;;;;;;12.17;2.00;;;;;;;;;;5059441;28;20286;-70
2023/03/24 07:10:03;;;;;;;21.30;5.87;;;;;;;;;;5067004;28;20813;-69
2023/03/24 07:12:29;;;;;;;12.60;2.97;;;;;;;;;;5060135;28;20286;-70
2023/03/24 07:14:55;;;;;;;17.38;5.22;;;;;;;;;;5060130;28;20119;-70
2023/03/24 07:17:20;;;;;;;10.65;2.38;;;;;;;;;;5053347;28;20100;-70
2023/03/24 07:19:45;;;;;;;9.05;2.13;;;;;;;;;;5062662;28;20021;-69
2023/03/24 07:22:11;;;;;;;22.70;2.90;;;;;;;;;;5053290;28;20078;-70
2023/03/24 07:24:36;;;;;;;12.48;2.40;;;;;;;;;;5062013;28;20440;-70
2023/03/24 07:27:01;;;;;;;9.25;2.90;;;;;;;;;;5057371;28;20104;-70
2023/03/24 07:29:26;;;;;;;13.05;3.58;;;;;;;;;;5057033;28;20021;-70
2023/03/24 07:31:53;;;;;;;17.27;3.65;;;;;;;;;;5055617;28;20024;-70
2023/03/24 07:34:18;;;;;;;19.88;4.95;;;;;;;;;;5057794;28;20070;-70
2023/03/24 07:36:43;;;;;;;13.43;4.13;;;;;;;;;;5062447;28;20028;-70
2023/03/24 07:39:09;;;;;;;13.90;3.60;;;;;;;;;;5062517;28;20111;-70
2023/03/24 07:41:34;;;;;;;20.27;5.03;;;;;;;;;;5060020;28;20325;-70
2023/03/24 07:44:00;;;;;;;19.17;4.25;;;;;;;;;;5065381;28;20439;-70
2023/03/24 07:46:25;;;;;;;15.18;3.53;;;;;;;;;;5063415;28;20020;-70
2023/03/24 07:48:51;;;;;;;17.10;4.07;;;;;;;;;;5063174;28;20020;-69
2023/03/24 07:51:18;;;;;;;14.88;4.65;;;;;;;;;;5051797;28;20017;-72
2023/03/24 07:53:44;;;;;;;11.30;4.03;;;;;;;;;;5061647;28;20025;-70
2023/03/24 07:56:09;;;;;;;14.90;4.05;;;;;;;;;;5063021;28;20023;-70
2023/03/24 07:58:34;;;;;;;16.08;2.33;;;;;;;;;;5062391;28;20048;-70
2023/03/24 08:01:00;;;;;;;9.00;2.80;;;;;;;;;;5055459;28;20116;-70
2023/03/24 08:03:26;;;;;;;5.33;1.70;;;;;;;;;;5057286;28;20156;-70
2023/03/24 08:05:52;;;;;;;15.32;2.15;;;;;;;;;;5054758;28;20719;-70
2023/03/24 08:08:17;;;;;;;11.45;3.08;;;;;;;;;;5057675;28;20044;-70
2023/03/24 08:10:44;;;;;;;16.52;2.35;;;;;;;;;;5061670;28;20081;-70
2023/03/24 08:13:09;;;;;;;12.38;2.20;;;;;;;;;;5067185;28;20027;-70
2023/03/24 08:15:35;;;;;;;10.65;2.22;;;;;;;;;;5065879;28;20013;-70
2023/03/24 08:18:00;;;;;;;12.03;2.73;;;;;;;;;;5063271;28;20024;-70
2023/03/24 08:20:26;;;;;;;15.00;1.75;;;;;;;;;;5059724;28;20267;-70
2023/03/24 08:22:52;;;;;;;8.77;1.23;;;;;;;;;;5060146;28;20432;-70
2023/03/24 08:25:18;;;;;;;8.80;1.70;;;;;;;;;;5062470;28;20137;-69
2023/03/24 08:27:43;;;;;;;5.38;1.65;;;;;;;;;;5061146;28;20095;-70
2023/03/24 08:30:10;;;;;;;11.43;2.50;;;;;;;;;;5054706;28;20023;-70
2023/03/24 08:32:35;;;;;;;11.02;2.15;;;;;;;;;;5057253;28;20032;-70
2023/03/24 08:35:01;;;;;;;6.60;1.80;;;;;;;;;;5056346;28;20033;-70
2023/03/24 08:37:26;;;;;;;12.57;2.60;;;;;;;;;;5059485;28;20805;-70
2023/03/24 08:39:51;;;;;;;11.17;2.33;;;;;;;;;;5063839;28;20021;-69
2023/03/24 08:42:17;;;;;;;10.98;2.17;;;;;;;;;;5055990;28;20287;-70
2023/03/24 08:44:43;;;;;;;10.87;3.10;;;;;;;;;;5066007;28;20104;-69
2023/03/24 08:47:08;;;;;;;9.45;2.47;;;;;;;;;;5060465;28;20769;-69
2023/03/24 08:49:33;;;;;;;11.23;2.47;;;;;;;;;;5052856;28;20107;-69
2023/03/24 08:51:58;;;;;;;9.37;2.60;;;;;;;;;;5055680;28;20290;-69
2023/03/24 08:54:25;;;;;;;15.40;2.80;;;;;;;;;;5063877;28;20273;-69
2023/03/24 08:56:50;;;;;;;10.25;2.20;;;;;;;;;;5059016;28;20267;-69
2023/03/24 08:59:15;;;;;;;16.85;2.88;;;;;;;;;;5058531;28;20021;-69
2023/03/24 09:01:41;;;;;;;11.18;3.17;;;;;;;;;;5055504;28;20551;-69
2023/03/24 09:04:07;;;;;;;16.40;3.65;;;;;;;;;;5059139;28;20024;-69
2023/03/24 09:06:32;;;;;;;20.58;4.75;;;;;;;;;;5062628;28;20017;-69
2023/03/24 09:08:57;;;;;;;9.73;3.27;;;;;;;;;;5056593;28;20020;-69
2023/03/24 09:11:23;;;;;;;18.30;3.73;;;;;;;;;;5059903;28;20035;-69
2023/03/24 09:13:48;;;;;;;7.70;1.85;;;;;;;;;;5062165;28;20274;-69
2023/03/24 09:16:13;;;;;;;4.63;1.30;;;;;;;;;;5060412;28;20466;-69
2023/03/24 09:18:39;;;;;;;7.25;2.75;;;;;;;;;;5057930;28;20299;-69
2023/03/24 09:21:04;;;;;;;16.05;3.60;;;;;;;;;;5061453;28;20044;-69
2023/03/24 09:23:30;;;;;;;13.80;3.83;;;;;;;;;;5058273;28;20025;-69
2023/03/24 09:25:56;;;;;;;24.75;5.05;;;;;;;;;;5061114;28;20024;-69
2023/03/24 09:28:21;;;;;;;16.48;4.00;;;;;;;;;;5062653;28;20017;-69
2023/03/24 09:30:47;;;;;;;15.95;3.05;;;;;;;;;;5059300;28;20085;-69
2023/03/24 09:33:12;;;;;;;17.65;3.38;;;;;;;;;;5055071;28;20497;-69
2023/03/24 09:35:37;;;;;;;16.90;3.35;;;;;;;;;;5060672;28;20025;-69
2023/03/24 09:38:03;;;;;;;14.05;3.25;;;;;;;;;;5055518;28;20047;-70
2023/03/24 09:40:30;;;;;;;9.60;2.13;;;;;;;;;;5059785;28;20112;-70
2023/03/24 09:42:58;;;;;;;13.70;2.53;;;;;;;;;;5060274;28;20021;-69
2023/03/24 09:45:25;;;;;;;17.40;3.05;;;;;;;;;;5062390;28;20481;-69
2023/03/24 09:48:00;;;;;;;8.32;1.77;;;;;;;;;;5061782;28;20033;-70
2023/03/24 09:50:32;;;;;;;11.38;3.30;;;;;;;;;;5064009;28;20378;-69
2023/03/24 09:52:59;;;;;;;14.68;1.52;;;;;;;;;;5056804;28;20028;-69
2023/03/24 09:55:26;;;;;;;9.50;2.83;;;;;;;;;;5062363;28;20512;-70
2023/03/24 09:57:52;;;;;;;16.17;3.28;;;;;;;;;;5057372;28;20029;-69
2023/03/24 10:00:20;;;;;;;14.00;2.92;;;;;;;;;;5056472;28;20059;-69
2023/03/24 10:02:45;;;;;;;18.30;3.63;;;;;;;;;;5052963;28;20036;-69
2023/03/24 10:05:12;;;;;;;12.35;2.10;;;;;;;;;;5057033;28;20413;-69
2023/03/24 10:07:51;;;;;;;8.70;1.92;;;;;;;;;;5060455;28;20389;-69
2023/03/24 10:10:35;;;;;;;14.82;2.17;;;;;;;;;;5056862;28;20025;-69
2023/03/24 10:13:10;;;;;;;13.30;2.90;;;;;;;;;;5056653;28;20039;-70
2023/03/24 10:15:42;;;;;;;16.20;2.88;;;;;;;;;;5063067;28;20150;-70
2023/03/24 10:18:11;;;;;;;14.93;2.17;;;;;;;;;;5067338;28;20554;-70
2023/03/24 10:20:56;;;;;;;23.48;3.25;;;;;;;;;;5064112;28;20028;-70
2023/03/24 10:23:38;;;;;;;12.35;2.53;;;;;;;;;;5067759;28;20044;-69
2023/03/24 10:26:13;;;;;;;11.63;2.60;;;;;;;;;;5073141;28;20528;-69
2023/03/24 10:28:43;;;;;;;17.05;2.42;;;;;;;;;;5067600;28;20021;-69
2023/03/24 10:31:13;;;;;;;14.38;3.13;;;;;;;;;;5062817;28;20502;-70
2023/03/24 10:33:38;;;;;;;;;;;;;;;;;;5066477;28;20028;-70
2023/03/24 10:36:05;;;;;;;13.75;2.50;;;;;;;;;;5066578;28;19934;-69
2023/03/24 10:38:30;;;;;;;15.55;2.88;;;;;;;;;;5070471;28;20027;-70
2023/03/24 10:40:56;;;;;;;17.45;3.25;;;;;;;;;;5066294;28;20469;-70
2023/03/24 10:43:22;;;;;;;12.43;2.25;;;;;;;;;;5064650;28;20016;-70
2023/03/24 10:45:51;;;;;;;12.68;2.88;;;;;;;;;;5069316;28;20028;-70
2023/03/24 10:48:53;;;;;;;20.20;3.10;;;;;;;;;;5058320;28;20031;-70
2023/03/24 10:51:25;;;;;;;12.65;2.97;;;;;;;;;;5030042;28;20054;-70
2023/03/24 10:54:09;;;;;;;10.40;2.25;;;;;;;;;;5056243;28;20054;-70
2023/03/24 10:56:40;;;;;;;12.60;2.10;;;;;;;;;;5061350;28;20590;-70
2023/03/24 10:59:17;;;;;;;8.93;1.75;;;;;;;;;;5058372;28;20631;-70
2023/03/24 11:01:42;;;;;;;12.43;2.80;;;;;;;;;;5057635;28;20021;-71
2023/03/24 11:04:10;;;;;;;13.63;1.40;;;;;;;;;;5063365;28;20087;-72
2023/03/24 11:06:35;;;;;;;8.45;1.23;;;;;;;;;;5060574;28;20282;-71
2023/03/24 11:09:17;;;;;;;5.63;1.75;;;;;;;;;;5061712;28;20017;-70
2023/03/24 11:11:42;;;;;;;6.85;1.60;;;;;;;;;;5058001;28;20017;-71
2023/03/24 11:14:17;;;;;;;9.17;1.67;;;;;;;;;;5057944;28;20583;-71
2023/03/24 11:16:42;;;;;;;10.35;1.92;;;;;;;;;;5054374;28;20691;-70
2023/03/24 11:19:23;;;;;;;13.43;1.88;;;;;;;;;;5057352;28;20009;-71
2023/03/24 11:21:50;;;;;;;6.93;1.45;;;;;;;;;;5065685;28;20545;-70
2023/03/24 11:24:16;;;;;;;4.65;1.45;;;;;;;;;;5064377;28;20018;-70
2023/03/24 11:26:49;;;;;;;15.55;2.10;;;;;;;;;;5064699;28;20115;-72
2023/03/24 11:29:18;;;;;;;8.85;1.92;;;;;;;;;;5061890;28;20031;-72
2023/03/24 11:31:49;;;;;;;11.07;2.50;;;;;;;;;;5058163;28;20096;-72
2023/03/24 11:34:18;;;;;;;12.43;1.88;;;;;;;;;;5062801;28;20058;-72
2023/03/24 11:36:54;;;;;;;13.85;3.38;;;;;;;;;;5061172;28;20150;-72
2023/03/24 11:39:23;;;;;;;13.02;2.25;;;;;;;;;;5064794;28;20024;-71
2023/03/24 11:41:50;;;;;;;11.32;2.38;;;;;;;;;;5066554;28;20469;-72
2023/03/24 11:44:17;;;;;;;11.98;1.90;;;;;;;;;;5063813;28;20085;-71
2023/03/24 11:46:43;;;;;;;14.65;2.55;;;;;;;;;;5055391;28;20032;-71
2023/03/24 11:49:10;;;;;;;19.80;2.33;;;;;;;;;;5060948;28;20071;-71
2023/03/24 11:51:37;;;;;;;8.70;2.20;;;;;;;;;;5056508;28;20539;-69
2023/03/24 11:54:04;;;;;;;9.55;2.80;;;;;;;;;;5063236;28;20100;-69
2023/03/24 11:56:40;;;;;;;14.13;2.65;;;;;;;;;;5055293;28;20096;-69
2023/03/24 11:59:24;;;;;;;16.15;2.70;;;;;;;;;;5061479;28;20016;-71
2023/03/24 12:02:01;;;;;;;10.05;2.22;;;;;;;;;;5058796;28;20017;-68
2023/03/24 12:04:48;;;;;;;15.27;2.88;;;;;;;;;;5059335;28;20028;-70
2023/03/24 12:07:19;;;;;;;14.30;3.10;;;;;;;;;;5057929;28;20031;-72
2023/03/24 12:09:47;;;;;;;16.10;2.92;;;;;;;;;;5054483;28;20021;-72
2023/03/24 12:12:35;;;;;;;16.38;2.13;;;;;;;;;;5057924;28;20017;-72
2023/03/24 12:15:12;;;;;;;12.95;2.85;;;;;;;;;;5053952;28;20032;-72
2023/03/24 12:17:40;;;;;;;17.75;2.40;;;;;;;;;;5052594;28;20371;-72
2023/03/24 12:20:20;;;;;;;8.98;1.35;;;;;;;;;;5057211;28;20107;-72
2023/03/24 12:22:54;;;;;;;12.80;1.85;;;;;;;;;;5062033;28;20481;-72
2023/03/24 12:25:38;;;;;;;6.85;1.27;;;;;;;;;;5056618;28;20031;-72
2023/03/24 12:28:09;;;;;;;6.13;1.13;;;;;;;;;;5059952;28;20541;-72
2023/03/24 12:30:37;;;;;;;10.15;2.00;;;;;;;;;;5057145;28;20025;-72
2023/03/24 12:33:17;;;;;;;11.40;1.13;;;;;;;;;;5056479;28;20025;-72
2023/03/24 12:35:43;;;;;;;4.47;0.68;;;;;;;;;;5055258;28;20025;-71
2023/03/24 12:38:31;;;;;;;6.20;1.00;;;;;;;;;;5055567;28;20126;-71
2023/03/24 12:41:15;;;;;;;8.27;1.35;;;;;;;;;;5053756;28;20275;-71
2023/03/24 12:43:52;;;;;;;8.20;1.40;;;;;;;;;;5061058;28;20111;-71
2023/03/24 12:46:17;;;;;;;10.68;1.38;;;;;;;;;;5060617;28;20379;-71
2023/03/24 12:49:02;;;;;;;11.80;1.60;;;;;;;;;;5055528;28;20117;-71
2023/03/24 12:51:49;;;;;;;12.57;3.58;;;;;;;;;;5054942;28;20077;-71
2023/03/24 12:54:35;;;;;;;13.63;2.17;;;;;;;;;;5052075;28;20031;-71
2023/03/24 12:57:02;;;;;;;5.78;0.98;;;;;;;;;;5059612;28;20024;-71
2023/03/24 12:59:33;;;;;;;5.38;1.23;;;;;;;;;;5051997;28;20036;-71
2023/03/24 13:01:58;;;;;;;;;;;;;;;;;;5057113;28;20016;-71
2023/03/24 13:04:31;;;;;;;16.50;2.38;;;;;;;;;;5058636;28;19953;-71
2023/03/24 13:07:07;;;;;;;12.82;1.65;;;;;;;;;;5061850;28;20020;-71
2023/03/24 13:09:42;;;;;;;12.20;1.90;;;;;;;;;;5065296;28;20024;-71
2023/03/24 13:12:11;;;;;;;12.90;1.88;;;;;;;;;;5056363;28;20024;-71
2023/03/24 13:14:46;;;;;;;11.40;1.92;;;;;;;;;;5053372;28;20052;-70
2023/03/24 13:17:16;;;;;;;18.35;2.88;;;;;;;;;;5052527;28;20544;-70
2023/03/24 13:19:41;;;;;;;7.22;1.85;;;;;;;;;;5057119;28;20025;-70
2023/03/24 13:22:11;;;;;;;12.23;2.28;;;;;;;;;;5058685;28;20031;-70
2023/03/24 13:24:36;;;;;;;12.93;1.65;;;;;;;;;;5054400;28;20402;-70
2023/03/24 13:27:22;;;;;;;7.13;1.40;;;;;;;;;;5053026;28;20017;-70
2023/03/24 13:30:06;;;;;;;11.20;2.03;;;;;;;;;;5065479;28;20409;-70
2023/03/24 13:32:43;;;;;;;12.13;1.48;;;;;;;;;;5053400;28;20095;-70
2023/03/24 13:35:19;;;;;;;8.30;1.90;;;;;;;;;;5052652;28;20123;-70
2023/03/24 13:37:47;;;;;;;8.00;1.60;;;;;;;;;;5055414;28;20056;-71
2023/03/24 13:40:21;;;;;;;12.07;1.92;;;;;;;;;;5060473;28;20035;-70
2023/03/24 13:42:48;;;;;;;17.63;2.65;;;;;;;;;;5061051;28;20027;-70
2023/03/24 13:45:24;;;;;;;15.07;1.58;;;;;;;;;;5054517;28;20056;-71
2023/03/24 13:47:56;;;;;;;7.20;1.38;;;;;;;;;;5054569;28;20158;-71
2023/03/24 13:50:23;;;;;;;12.48;1.70;;;;;;;;;;5056193;28;20505;-71
2023/03/24 13:52:48;;;;;;;8.88;1.35;;;;;;;;;;5057378;28;20028;-70
2023/03/24 13:55:18;;;;;;;9.20;1.65;;;;;;;;;;5056982;28;20023;-70
2023/03/24 13:57:53;;;;;;;6.22;1.10;;;;;;;;;;5056228;28;20103;-71
2023/03/24 14:00:20;;;;;;;3.92;0.88;;;;;;;;;;5054971;28;20103;-71
2023/03/24 14:03:04;;;;;;;6.03;1.05;;;;;;;;;;5053241;28;20021;-70
2023/03/24 14:05:29;;;;;;;12.00;1.40;;;;;;;;;;5060775;28;20025;-70
2023/03/24 14:07:57;;;;;;;7.25;1.00;;;;;;;;;;5057546;28;20005;-70
2023/03/24 14:10:22;;;;;;;7.55;1.20;;;;;;;;;;5057467;28;20029;-70
2023/03/24 14:13:00;;;;;;;3.22;0.70;;;;;;;;;;5057591;28;20031;-70
2023/03/24 14:15:28;;;;;;;11.50;2.75;;;;;;;;;;5060568;28;20154;-70
2023/03/24 14:17:55;;;;;;;13.10;1.13;;;;;;;;;;5054267;28;20025;-70
2023/03/24 14:20:24;;;;;;;6.45;0.90;;;;;;;;;;5058430;28;20021;-71
2023/03/24 14:22:50;;;;;;;9.23;1.48;;;;;;;;;;5057659;28;20163;-71
2023/03/24 14:25:15;;;;;;;7.97;1.35;;;;;;;;;;5058442;28;20021;-71
2023/03/24 14:27:42;;;;;;;8.83;1.20;;;;;;;;;;5059570;28;20020;-72
2023/03/24 14:30:10;;;;;;;6.25;1.00;;;;;;;;;;5056296;28;20275;-71
2023/03/24 14:32:36;;;;;;;8.20;1.05;;;;;;;;;;5064825;28;20032;-71
2023/03/24 14:35:03;;;;;;;7.30;0.90;;;;;;;;;;5062357;28;20021;-71
2023/03/24 14:37:28;;;;;;;6.97;1.08;;;;;;;;;;5058493;28;20108;-72
2023/03/24 14:39:56;;;;;;;1.05;0.32;;;;;;;;;;5059566;28;20116;-72
2023/03/24 14:42:44;;;;;;;7.40;1.38;;;;;;;;;;5061644;28;20632;-72
2023/03/24 14:45:28;;;;;;;4.32;0.73;;;;;;;;;;5062590;28;20032;-72
2023/03/24 14:47:58;;;;;;;5.82;1.13;;;;;;;;;;5060178;28;20021;-72
2023/03/24 14:50:24;;;;;;;1.10;0.60;;;;;;;;;;5057478;28;20017;-72